Axis, AL

7:05 AM CDT on October 25, 2014 (GMT -0500)
Lott International | Change Station
CLOSE
Current Station
Airport
Location: Pascagoula,
Elevation: 16 ft
Nearby Weather Stations

Elev 16 ft 30.46 °N, 88.53 °W | Updated 12 minutes ago

Clear
Clear
42 °F
Feels Like 42 °F
N
0
Wind Variable Wind from North

Today
High -- | Low -- °F
--% Chance of Precip.
Yesterday
High -- | Low -- °F
Precip. -- in
7:01 AM 6:10 PM
Waxing Crescent, 3% visible
Pressure 30.12 in
Visibility 10.0 miles
Clouds Clear
Dew Point 41 °F
Humidity 96%
Rainfall 0.00 in
Snow Depth Not available.
UV 0 out of 12
Pollen 2.60 out of 12
Ozone Good
Flu Activity Sporadic
METAR KPQL 251153Z AUTO 00000KT 10SM CLR 06/05 A3011 RMK AO2 SLP198 T00560050 10083 20044 53012 TSNO

More Conditions Fewer Conditions

Pressure 30.12 in
Visibility 10.0 miles
Clouds Clear
Dew Point 41 °F
Humidity 96%
Rainfall 0.00 in
Snow Depth Not available.
UV 0 out of 12
Pollen 2.60 out of 12
Ozone Good
Flu Activity Sporadic
METAR KPQL 251153Z AUTO 00000KT 10SM CLR 06/05 A3011 RMK AO2 SLP198 T00560050 10083 20044 53012 TSNO

More Conditions Fewer Conditions

10-Day Weather Forecast

Almanac

Astronomy

Oct. 25, 2014 Rise Set
Actual Time 7:01 AM CDT 6:10 PM CDT
Civil Twilight 6:37 AM CDT 6:34 PM CDT
Nautical Twilight 6:08 AM CDT 7:03 PM CDT
Astronomical Twilight 5:40 AM CDT 7:31 PM CDT
Moon 8:35 AM CDT 7:38 PM CDT
Length of Visible Light 11h 57m
Length of Day
11h 08m
Tomorrow will be 1m 43s shorter.
Waxing Crescent, 3% of the Moon is Illuminated
Today
Waxing Crescent
Oct 30
First Quarter
Nov 6
Full
Nov 14
Last Quarter
Nov 22
New

Today's Extremes

State Highs State Lows

Community

WunderPhotos

Upload Photos

1,764,816 photos uploaded!

Nearby

Air Quality

  Air Quality AQ Index Pollutant
Yesterday Good
OZONE
Current Good
OZONE

Snow Depth

Station Depth Elevation
No new snow has been reported.

Earthquake Activity

City Distance Mag. Time & Date
No recent earthquake activity has been reported nearby.
Minimum magnitude displayed is 2.5.

Coastal Water Temperatures

Place Temperature
Mobile State Docks, AL 73.0 °F
Coast Guard Sector Mobile, AL 73.9 °F

Nearby Weather Stations